createdAt,value
2022-10-19T00:01:40.360Z,101053.22
2022-10-19T00:04:11.330Z,101057.56
2022-10-19T00:07:00.390Z,101062.28
2022-10-19T00:09:32.056Z,101077.91
2022-10-19T00:12:02.735Z,101065.84
2022-10-19T00:14:33.433Z,101068.00
2022-10-19T00:17:04.191Z,101072.38
2022-10-19T00:19:35.177Z,101075.13
2022-10-19T00:22:07.187Z,101075.13
2022-10-19T00:24:39.916Z,101086.16
2022-10-19T00:27:10.827Z,101083.41
2022-10-19T00:29:42.095Z,101083.59
2022-10-19T00:32:12.727Z,101080.38
2022-10-19T00:34:43.398Z,101086.34
2022-10-19T00:37:14.096Z,101088.31
2022-10-19T00:39:44.977Z,101094.13
2022-10-19T00:42:16.296Z,101094.13
2022-10-19T00:44:46.722Z,101099.84
2022-10-19T00:47:18.556Z,101099.84
2022-10-19T00:50:08.193Z,101096.25
2022-10-19T00:52:38.913Z,101099.84
2022-10-19T00:55:11.070Z,101102.59
2022-10-19T00:57:43.465Z,101101.47
2022-10-19T01:03:01.882Z,101109.44
2022-10-19T01:05:33.902Z,101108.31
2022-10-19T01:08:05.145Z,101112.38
2022-10-19T01:11:09.048Z,101118.22
2022-10-19T01:14:18.196Z,101122.91
2022-10-19T01:17:03.945Z,101119.53
2022-10-19T01:20:31.671Z,101124.25
2022-10-19T01:23:39.798Z,101133.81
2022-10-19T01:26:54.832Z,101136.59
2022-10-19T01:29:57.929Z,101141.50
2022-10-19T01:32:31.989Z,101132.94
2022-10-19T01:35:11.800Z,101137.94
2022-10-19T01:41:37.589Z,101138.75
2022-10-19T01:44:34.840Z,101135.69
2022-10-19T01:47:29.088Z,101146.19
2022-10-19T01:50:37.474Z,101147.53
2022-10-19T01:53:12.597Z,101148.63
2022-10-19T02:01:58.835Z,101151.41
2022-10-19T02:04:30.083Z,101151.91
2022-10-19T02:07:01.407Z,101149.69
2022-10-19T02:09:50.524Z,101146.94
2022-10-19T02:12:24.238Z,101150.28
2022-10-19T02:15:18.215Z,101145.50
2022-10-19T02:17:55.721Z,101152.94
2022-10-19T02:20:27.296Z,101152.13
2022-10-19T02:22:58.485Z,101151.00
2022-10-19T02:28:35.464Z,101156.50
2022-10-19T02:31:07.000Z,101166.09
2022-10-19T02:33:38.354Z,101160.09
2022-10-19T02:36:09.053Z,101144.91
2022-10-19T02:38:40.251Z,101152.84
2022-10-19T02:41:51.553Z,101145.41
2022-10-19T02:44:31.565Z,101147.06
2022-10-19T02:47:08.784Z,101144.28
2022-10-19T02:49:41.183Z,101139.31
2022-10-19T02:52:14.665Z,101139.59
2022-10-19T02:54:47.929Z,101135.72
2022-10-19T02:57:22.379Z,101133.28
2022-10-19T02:59:54.798Z,101127.97
2022-10-19T03:02:25.814Z,101127.38
2022-10-19T03:04:56.828Z,101120.50
2022-10-19T03:07:28.087Z,101118.06
2022-10-19T03:09:59.034Z,101111.97
2022-10-19T03:12:29.951Z,101115.81
2022-10-19T03:15:00.986Z,101119.38
2022-10-19T03:17:32.452Z,101118.78
2022-10-19T03:20:03.692Z,101117.41
2022-10-19T03:22:34.612Z,101104.72
2022-10-19T03:25:05.559Z,101102.81
2022-10-19T03:27:36.647Z,101114.66
2022-10-19T03:30:07.757Z,101114.03
2022-10-19T03:32:38.702Z,101110.75
2022-10-19T03:35:10.428Z,101098.84
2022-10-19T03:37:41.375Z,101098.59
2022-10-19T03:40:12.927Z,101096.69
2022-10-19T03:42:43.849Z,101094.72
2022-10-19T03:45:14.890Z,101096.38
2022-10-19T03:47:45.916Z,101094.97
2022-10-19T03:50:19.883Z,101094.13
2022-10-19T03:52:52.540Z,101090.25
2022-10-19T03:55:23.516Z,101084.44
2022-10-19T03:57:54.454Z,101077.78
2022-10-19T04:00:25.930Z,101073.31
2022-10-19T04:02:56.779Z,101069.53
2022-10-19T04:05:27.742Z,101069.13
2022-10-19T04:07:58.834Z,101058.41
2022-10-19T04:10:29.710Z,101058.41
2022-10-19T04:13:00.625Z,101057.59
2022-10-19T04:15:31.512Z,101047.56
2022-10-19T04:18:02.445Z,101044.31
2022-10-19T04:20:33.272Z,101046.78
2022-10-19T04:23:04.215Z,101043.69
2022-10-19T04:25:35.300Z,101039.31
2022-10-19T04:28:06.295Z,101037.06
2022-10-19T04:30:37.098Z,101028.78
2022-10-19T04:33:07.931Z,101030.63
2022-10-19T04:35:38.815Z,101026.03
2022-10-19T04:38:09.919Z,101022.16
2022-10-19T04:40:41.487Z,101016.34
2022-10-19T04:43:12.604Z,101011.03
2022-10-19T04:45:43.625Z,101008.56
2022-10-19T04:48:15.276Z,101000.00
2022-10-19T04:50:46.393Z,100996.94
2022-10-19T04:55:59.123Z,100982.84
2022-10-19T04:58:30.740Z,100988.38
2022-10-19T05:01:01.980Z,100984.69
2022-10-19T05:03:32.956Z,100968.94
2022-10-19T05:06:03.910Z,100972.81
2022-10-19T05:08:35.466Z,100970.06
2022-10-19T05:11:17.997Z,100964.25
2022-10-19T05:13:49.651Z,100952.91
2022-10-19T05:16:23.454Z,100946.88
2022-10-19T05:18:58.991Z,100945.47
2022-10-19T05:21:31.668Z,100947.59
2022-10-19T05:24:02.662Z,100940.94
2022-10-19T05:26:33.834Z,100948.09
2022-10-19T05:29:08.715Z,100941.78
2022-10-19T05:31:39.686Z,100938.19
2022-10-19T05:34:10.865Z,100940.31
2022-10-19T05:36:43.086Z,100934.81
2022-10-19T05:39:19.672Z,100935.63
2022-10-19T05:41:51.377Z,100930.59
2022-10-19T05:44:25.329Z,100927.22
2022-10-19T05:46:56.374Z,100923.16
2022-10-19T05:49:27.703Z,100917.84
2022-10-19T05:51:58.198Z,100919.78
2022-10-19T05:54:32.219Z,100912.63
2022-10-19T05:57:03.933Z,100909.88
2022-10-19T05:59:34.987Z,100915.69
2022-10-19T06:02:06.533Z,100915.91
2022-10-19T06:04:38.016Z,100903.25
2022-10-19T06:07:09.145Z,100901.00
2022-10-19T06:09:40.137Z,100897.59
2022-10-19T06:12:11.074Z,100900.03
2022-10-19T06:14:42.197Z,100884.28
2022-10-19T06:17:13.777Z,100889.00
2022-10-19T06:19:45.012Z,100875.03
2022-10-19T06:22:16.120Z,100873.09
2022-10-19T06:24:47.342Z,100870.84
2022-10-19T06:27:18.168Z,100876.34
2022-10-19T06:29:49.330Z,100863.69
2022-10-19T06:32:20.581Z,100866.13
2022-10-19T06:34:56.324Z,100862.06
2022-10-19T06:37:27.755Z,100863.69
2022-10-19T06:40:00.011Z,100855.09
2022-10-19T06:42:32.807Z,100850.06
2022-10-19T06:45:03.718Z,100846.00
2022-10-19T06:47:36.353Z,100844.88
2022-10-19T06:50:09.802Z,100841.00
2022-10-19T06:52:41.264Z,100838.25
2022-10-19T06:55:18.543Z,100828.53
2022-10-19T06:57:49.577Z,100826.38
2022-10-19T07:00:20.862Z,100826.91
2022-10-19T07:02:51.659Z,100821.09
2022-10-19T07:05:25.410Z,100825.00
2022-10-19T07:07:56.649Z,100823.88
2022-10-19T07:10:27.820Z,100818.09
2022-10-19T07:13:00.231Z,100809.84
2022-10-19T07:15:31.310Z,100810.97
2022-10-19T07:18:12.531Z,100810.97
2022-10-19T07:20:49.620Z,100807.41
2022-10-19T07:23:29.691Z,100810.16
2022-10-19T07:28:53.891Z,100805.69
2022-10-19T07:31:38.696Z,100800.44
2022-10-19T07:34:09.724Z,100799.50
2022-10-19T07:36:46.054Z,100792.38
2022-10-19T07:42:03.055Z,100789.13
2022-10-19T07:44:35.952Z,100790.09
2022-10-19T07:47:11.837Z,100778.56
2022-10-19T07:49:48.200Z,100776.97
2022-10-19T07:52:24.778Z,100770.63
2022-10-19T07:54:59.503Z,100768.69
2022-10-19T07:57:30.919Z,100775.81
2022-10-19T08:00:05.036Z,100767.88
2022-10-19T08:02:55.983Z,100781.13
2022-10-19T08:05:42.390Z,100773.91
2022-10-19T08:08:13.608Z,100767.25
2022-10-19T08:10:44.714Z,100757.34
2022-10-19T08:13:15.859Z,100766.63
2022-10-19T08:15:46.942Z,100745.97
2022-10-19T08:18:19.819Z,100747.63
2022-10-19T08:20:56.327Z,100752.31
2022-10-19T08:23:27.902Z,100747.94
2022-10-19T08:26:02.748Z,100745.97
2022-10-19T08:28:36.078Z,100745.47
2022-10-19T08:31:18.811Z,100746.81
2022-10-19T08:33:50.304Z,100738.53
2022-10-19T08:36:23.211Z,100740.47
2022-10-19T08:38:58.551Z,100739.34
2022-10-19T08:41:44.599Z,100744.34
2022-10-19T08:44:21.297Z,100740.47
2022-10-19T08:47:07.701Z,100744.84
2022-10-19T08:49:39.800Z,100750.25
2022-10-19T08:52:24.511Z,100744.34
2022-10-19T08:54:59.101Z,100755.25
2022-10-19T08:57:41.575Z,100754.13
2022-10-19T09:00:26.203Z,100758.50
2022-10-19T09:03:56.369Z,100758.50
2022-10-19T09:06:27.885Z,100750.88
2022-10-19T09:09:00.935Z,100752.16
2022-10-19T09:11:38.232Z,100750.88
2022-10-19T09:14:19.999Z,100755.25
2022-10-19T09:16:51.153Z,100758.13
2022-10-19T09:19:31.110Z,100761.28
2022-10-19T09:22:10.153Z,100757.00
2022-10-19T09:24:52.759Z,100768.53
2022-10-19T09:27:38.000Z,100767.41
2022-10-19T09:30:22.616Z,100756.56
2022-10-19T09:33:04.286Z,100759.13
2022-10-19T09:35:40.782Z,100761.09
2022-10-19T09:38:17.790Z,100761.41
2022-10-19T09:40:49.034Z,100761.91
2022-10-19T09:43:27.516Z,100768.88
2022-10-19T09:46:16.630Z,100778.44
2022-10-19T09:48:55.830Z,100774.88
2022-10-19T09:51:27.596Z,100786.44
2022-10-19T09:53:59.493Z,100783.47
2022-10-19T09:56:31.421Z,100782.50
2022-10-19T09:59:05.963Z,100788.97
2022-10-19T10:01:53.436Z,100788.34
2022-10-19T10:04:28.111Z,100791.75
2022-10-19T10:07:00.371Z,100796.13
2022-10-19T10:09:34.889Z,100798.09
2022-10-19T10:12:11.443Z,100796.47
2022-10-19T10:14:43.987Z,100801.13
2022-10-19T10:17:25.091Z,100798.25
2022-10-19T10:20:02.135Z,100813.19
2022-10-19T10:22:39.664Z,100813.00
2022-10-19T10:25:21.571Z,100808.66
2022-10-19T10:28:23.815Z,100814.63
2022-10-19T10:31:09.909Z,100812.38
2022-10-19T10:33:45.599Z,100810.41
2022-10-19T10:36:19.678Z,100818.69
2022-10-19T10:38:55.131Z,100817.69
2022-10-19T10:41:27.333Z,100820.44
2022-10-19T10:44:06.847Z,100818.19
2022-10-19T10:47:04.852Z,100824.84
2022-10-19T10:49:40.920Z,100823.72
2022-10-19T10:52:19.350Z,100825.97
2022-10-19T10:55:11.771Z,100825.66
2022-10-19T10:57:48.160Z,100825.66
2022-10-19T11:00:23.630Z,100835.56
2022-10-19T11:03:22.182Z,100840.75
2022-10-19T11:06:06.229Z,100837.19
2022-10-19T11:08:53.997Z,100844.34
2022-10-19T11:11:31.596Z,100843.00
2022-10-19T11:14:11.425Z,100851.28
2022-10-19T11:16:46.717Z,100849.66
2022-10-19T11:19:22.879Z,100854.06
2022-10-19T11:22:06.304Z,100862.31
2022-10-19T11:25:05.462Z,100861.19
2022-10-19T11:27:46.045Z,100867.84
2022-10-19T11:30:28.926Z,100862.31
2022-10-19T11:33:18.882Z,100865.69
2022-10-19T11:35:58.633Z,100862.94
2022-10-19T11:38:40.160Z,100873.97
2022-10-19T11:41:42.464Z,100874.47
2022-10-19T11:44:23.502Z,100883.59
2022-10-19T11:47:19.902Z,100877.25
2022-10-19T11:49:54.954Z,100878.25
2022-10-19T11:52:49.054Z,100886.53
2022-10-19T11:55:26.463Z,100882.47
2022-10-19T11:58:38.376Z,100890.41
2022-10-19T12:01:34.809Z,100893.50
2022-10-19T12:04:38.099Z,100890.22
2022-10-19T12:07:42.910Z,100892.47
2022-10-19T12:10:37.631Z,100893.28
2022-10-19T12:13:21.466Z,100904.31
2022-10-19T12:16:02.329Z,100908.09
2022-10-19T12:18:34.160Z,100905.44
2022-10-19T12:21:27.070Z,100902.06
2022-10-19T12:24:04.420Z,100917.50
2022-10-19T12:26:40.948Z,100916.38
2022-10-19T12:29:39.722Z,100924.34
2022-10-19T12:32:20.601Z,100928.41
2022-10-19T12:35:09.570Z,100944.13
2022-10-19T12:38:10.575Z,100941.69
2022-10-19T12:40:56.552Z,100954.34
2022-10-19T12:43:39.954Z,100951.09
2022-10-19T12:46:56.360Z,100951.41
2022-10-19T12:49:53.971Z,100958.06
2022-10-19T12:52:48.454Z,100957.22
2022-10-19T12:55:28.507Z,100961.13
2022-10-19T12:58:04.767Z,100961.44
2022-10-19T13:00:52.633Z,100971.34
2022-10-19T13:03:33.469Z,100979.28
2022-10-19T13:06:17.371Z,100980.13
2022-10-19T13:09:13.666Z,100984.19
2022-10-19T13:12:23.652Z,100991.34
2022-10-19T13:15:08.698Z,100999.28
2022-10-19T13:17:43.482Z,100993.41
2022-10-19T13:25:37.651Z,101002.38
2022-10-19T13:28:41.465Z,101014.16
2022-10-19T13:31:38.560Z,101014.06
2022-10-19T13:34:22.283Z,101018.28
2022-10-19T13:37:11.397Z,101028.59
2022-10-19T13:39:48.933Z,101028.97
2022-10-19T13:45:40.173Z,101034.13
2022-10-19T13:51:59.209Z,101038.47
2022-10-19T13:58:40.651Z,101060.44
2022-10-19T14:01:48.430Z,101064.13
2022-10-19T14:04:53.011Z,101058.66
2022-10-19T14:10:32.827Z,101060.63
2022-10-19T14:13:26.099Z,101065.94
2022-10-19T14:16:00.604Z,101064.28
2022-10-19T14:18:42.625Z,101068.81
2022-10-19T14:21:15.148Z,101067.56
2022-10-19T14:26:24.698Z,101075.72
2022-10-19T14:29:02.718Z,101072.88
2022-10-19T14:31:41.812Z,101086.34
2022-10-19T14:34:14.699Z,101088.34
2022-10-19T14:36:52.899Z,101078.25
2022-10-19T14:39:38.548Z,101089.00
2022-10-19T14:42:14.551Z,101081.63
2022-10-19T14:44:47.561Z,101080.03
2022-10-19T14:47:25.248Z,101086.16
2022-10-19T14:49:59.954Z,101081.25
2022-10-19T14:52:42.264Z,101090.66
2022-10-19T14:55:20.955Z,101093.22
2022-10-19T14:57:57.212Z,101095.16
2022-10-19T15:00:31.591Z,101091.78
2022-10-19T15:03:12.965Z,101094.03
2022-10-19T15:05:53.933Z,101096.16
2022-10-19T15:08:34.632Z,101089.34
2022-10-19T15:11:12.215Z,101089.63
2022-10-19T15:13:46.651Z,101094.03
2022-10-19T15:16:50.513Z,101094.53
2022-10-19T15:19:33.635Z,101092.91
2022-10-19T15:22:11.283Z,101097.09
2022-10-19T15:24:58.368Z,101091.25
2022-10-19T15:27:52.971Z,101092.72
2022-10-19T15:30:34.854Z,101089.63
2022-10-19T15:33:09.128Z,101096.28
2022-10-19T15:35:44.012Z,101094.53
2022-10-19T15:38:26.859Z,101101.50
2022-10-19T15:41:03.967Z,101100.38
2022-10-19T15:43:38.856Z,101099.84
2022-10-19T15:46:20.190Z,101099.03
2022-10-19T15:48:55.582Z,101096.06
2022-10-19T15:51:27.228Z,101094.63
2022-10-19T15:54:00.392Z,101097.09
2022-10-19T15:56:34.486Z,101100.47
2022-10-19T15:59:09.507Z,101098.03
2022-10-19T16:01:41.494Z,101103.22
2022-10-19T16:04:14.839Z,101098.84
2022-10-19T16:06:49.520Z,101105.19
2022-10-19T16:09:24.505Z,101106.56
2022-10-19T16:11:59.757Z,101105.66
2022-10-19T16:14:37.223Z,101102.91
2022-10-19T16:17:08.870Z,101098.84
2022-10-19T16:19:40.610Z,101097.41
2022-10-19T16:22:15.074Z,101106.78
2022-10-19T16:25:03.316Z,101102.09
2022-10-19T16:27:44.401Z,101106.31
2022-10-19T16:30:24.167Z,101107.94
2022-10-19T16:33:05.379Z,101110.19
2022-10-19T16:35:37.254Z,101101.38
2022-10-19T16:40:57.069Z,101102.72
2022-10-19T16:43:36.036Z,101106.56
2022-10-19T16:46:15.174Z,101093.91
2022-10-19T16:49:07.784Z,101092.78
2022-10-19T16:51:47.202Z,101095.84
2022-10-19T16:54:23.452Z,101087.25
2022-10-19T16:56:55.813Z,101082.69
2022-10-19T16:59:27.618Z,101079.31
2022-10-19T17:01:59.484Z,101079.13
2022-10-19T17:04:31.037Z,101081.88
2022-10-19T17:07:02.677Z,101087.38
2022-10-19T17:09:41.831Z,101087.69
2022-10-19T17:12:14.431Z,101095.84
2022-10-19T17:14:46.862Z,101093.38
2022-10-19T17:17:19.947Z,101084.81
2022-10-19T17:19:51.602Z,101079.31
2022-10-19T17:22:23.169Z,101087.59
2022-10-19T17:24:54.695Z,101088.38
2022-10-19T17:27:29.135Z,101093.91
2022-10-19T17:30:00.627Z,101096.16
2022-10-19T17:32:32.268Z,101086.25
2022-10-19T17:35:03.982Z,101085.44
2022-10-19T17:37:38.730Z,101082.06
2022-10-19T17:40:11.115Z,101070.53
2022-10-19T17:42:42.781Z,101062.06
2022-10-19T17:45:14.698Z,101062.06
2022-10-19T17:47:46.339Z,101068.38
2022-10-19T17:50:17.927Z,101060.63
2022-10-19T17:52:49.745Z,101057.34
2022-10-19T17:57:53.328Z,101052.97
2022-10-19T18:00:24.898Z,101050.81
2022-10-19T18:02:56.454Z,101042.06
2022-10-19T18:05:27.750Z,101041.94
2022-10-19T18:07:59.424Z,101031.22
2022-10-19T18:10:30.844Z,101027.94
2022-10-19T18:13:01.760Z,101025.91
2022-10-19T18:15:33.244Z,101022.75
2022-10-19T18:18:04.790Z,101018.38
2022-10-19T18:20:36.246Z,101011.41
2022-10-19T18:23:09.364Z,101017.53
2022-10-19T18:25:53.980Z,100997.94
2022-10-19T18:28:26.072Z,101003.94
2022-10-19T18:30:57.596Z,100999.34
2022-10-19T18:33:32.411Z,100994.84
2022-10-19T18:36:04.392Z,100986.59
2022-10-19T18:38:36.150Z,100982.53
2022-10-19T18:41:09.877Z,100982.19
2022-10-19T18:43:42.298Z,100975.56
2022-10-19T18:46:13.876Z,100979.75
2022-10-19T18:48:45.474Z,100971.97
2022-10-19T18:51:18.329Z,100969.72
2022-10-19T18:53:50.976Z,100970.38
2022-10-19T18:56:25.584Z,100953.00
2022-10-19T18:58:57.199Z,100954.53
2022-10-19T19:01:31.178Z,100957.47
2022-10-19T19:04:10.170Z,100956.38
2022-10-19T19:06:42.954Z,100944.72
2022-10-19T19:09:16.155Z,100945.84
2022-10-19T19:11:47.714Z,100944.03
2022-10-19T19:14:23.920Z,100937.38
2022-10-19T19:16:55.650Z,100939.31
2022-10-19T19:19:28.869Z,100939.31
2022-10-19T19:22:02.275Z,100941.44
2022-10-19T19:24:38.650Z,100946.47
2022-10-19T19:27:10.394Z,100940.94
2022-10-19T19:29:41.982Z,100951.78
2022-10-19T19:32:13.668Z,100948.09
2022-10-19T19:34:45.603Z,100943.84
2022-10-19T19:37:17.213Z,100947.28
2022-10-19T19:39:48.944Z,100941.06
2022-10-19T19:42:24.377Z,100939.63
2022-10-19T19:44:58.693Z,100929.72
2022-10-19T19:47:30.262Z,100936.97
2022-10-19T19:50:01.963Z,100942.50
2022-10-19T19:52:39.423Z,100940.75
2022-10-19T19:55:12.418Z,100938.84
2022-10-19T19:57:44.125Z,100942.72
2022-10-19T20:00:16.275Z,100942.19
2022-10-19T20:02:47.856Z,100937.63
2022-10-19T20:05:19.589Z,100937.63
2022-10-19T20:07:51.512Z,100935.84
2022-10-19T20:10:23.025Z,100935.66
2022-10-19T20:12:54.674Z,100939.03
2022-10-19T20:15:26.253Z,100937.63
2022-10-19T20:17:58.074Z,100928.97
2022-10-19T20:20:29.834Z,100940.50
2022-10-19T20:23:01.578Z,100938.34
2022-10-19T20:25:33.231Z,100936.59
2022-10-19T20:28:04.941Z,100932.41
2022-10-19T20:30:37.047Z,100933.53
2022-10-19T20:33:08.560Z,100927.72
2022-10-19T20:35:40.314Z,100932.84
2022-10-19T20:38:11.651Z,100929.47
2022-10-19T20:40:43.651Z,100928.78
2022-10-19T20:43:15.384Z,100924.88
2022-10-19T20:45:46.919Z,100934.97
2022-10-19T20:48:18.637Z,100929.56
2022-10-19T20:50:50.319Z,100927.31
2022-10-19T20:53:21.822Z,100928.97
2022-10-19T20:55:53.202Z,100922.63
2022-10-19T20:58:24.683Z,100915.06
2022-10-19T21:00:56.198Z,100922.00
2022-10-19T21:03:27.621Z,100925.06
2022-10-19T21:05:58.602Z,100918.13
2022-10-19T21:08:30.125Z,100921.81
2022-10-19T21:11:01.703Z,100918.72
2022-10-19T21:13:33.174Z,100916.81
2022-10-19T21:16:21.326Z,100918.72
2022-10-19T21:18:53.661Z,100916.28
2022-10-19T21:21:28.220Z,100921.31
2022-10-19T21:24:02.835Z,100920.38
2022-10-19T21:26:36.875Z,100915.16
2022-10-19T21:29:10.188Z,100916.09
2022-10-19T21:31:46.548Z,100923.25
2022-10-19T21:34:25.058Z,100924.25
2022-10-19T21:36:57.185Z,100930.91
2022-10-19T21:39:28.840Z,100930.91
2022-10-19T21:42:00.806Z,100938.97
2022-10-19T21:44:32.300Z,100935.41
2022-10-19T21:47:04.029Z,100940.31
2022-10-19T21:49:34.943Z,100945.50
2022-10-19T21:52:06.499Z,100941.94
2022-10-19T21:54:37.861Z,100949.19
2022-10-19T21:57:08.607Z,100949.69
2022-10-19T21:59:40.029Z,100951.34
2022-10-19T22:02:11.403Z,100947.03
2022-10-19T22:04:43.065Z,100957.97
2022-10-19T22:07:14.936Z,100963.69
2022-10-19T22:09:46.876Z,100968.28
2022-10-19T22:12:18.468Z,100960.63
2022-10-19T22:14:50.027Z,100969.00
2022-10-19T22:17:21.474Z,100968.69
2022-10-19T22:19:53.851Z,100970.03
2022-10-19T22:22:25.291Z,100969.00
2022-10-19T22:24:56.654Z,100976.47
2022-10-19T22:27:28.140Z,100972.97
2022-10-19T22:29:59.595Z,100978.28
2022-10-19T22:32:31.066Z,100987.59
2022-10-19T22:35:02.603Z,100977.69
2022-10-19T22:37:34.046Z,100983.38
2022-10-19T22:40:05.179Z,100980.34
2022-10-19T22:42:37.193Z,100987.97
2022-10-19T22:45:09.710Z,100989.94
2022-10-19T22:47:41.429Z,100997.38
2022-10-19T22:50:14.950Z,101000.75
2022-10-19T22:55:16.701Z,101009.53
2022-10-19T22:57:48.207Z,101022.56
2022-10-19T23:00:19.830Z,101023.88
2022-10-19T23:02:51.240Z,101026.75
2022-10-19T23:05:22.284Z,101033.25
2022-10-19T23:07:53.711Z,101033.25
2022-10-19T23:10:25.381Z,101033.69
2022-10-19T23:12:57.194Z,101037.75
2022-10-19T23:15:28.465Z,101048.72
2022-10-19T23:17:59.269Z,101050.13
2022-10-19T23:20:30.590Z,101050.72
2022-10-19T23:23:01.279Z,101054.28
2022-10-19T23:28:08.828Z,101061.97
2022-10-19T23:30:40.558Z,101067.88
2022-10-19T23:33:11.734Z,101068.78
2022-10-19T23:35:42.987Z,101076.66
2022-10-19T23:38:14.425Z,101078.38
2022-10-19T23:40:47.499Z,101085.44
2022-10-19T23:43:18.848Z,101081.31
2022-10-19T23:45:50.060Z,101089.84
2022-10-19T23:48:20.931Z,101094.31
2022-10-19T23:51:00.809Z,101096.44
2022-10-19T23:53:35.848Z,101103.88
2022-10-19T23:56:13.022Z,101112.25
2022-10-19T23:58:44.555Z,101124.00
